AUA26V EDDS-LOWW
Flight info
| Callsign | AUA26V |
|---|---|
| Flight time | 1h 1m |
| Altitude | 31000 |
| Route | ABTAL4B/25 ABTAL L173 RIXED Y161 RIDAR Z98 MIQ L605 BIBAG Q104 AKIMA DCT MASUR MASUR3W |
| Aircraft | A320/M-SDE3FGHIRWY/LB1 |
Departure
| Time | 2026-05-06 18:17 |
|---|---|
| Airport | Stuttgart Airport (EDDS) |
Arrival
| Time | 2026-05-06 19:18 |
|---|---|
| Airport | Vienna International Airport (LOWW) |
| Time | Latitude | Longitude | Altitude | Speed | Heading |
|---|---|---|---|---|---|
| 2026-05-06 17:45 | 48.68961 | 9.19778 | 1291 ft | 0 kts | 345° |
| 2026-05-06 18:06 | 48.68956 | 9.19780 | 1285 ft | 2 kts | 345° |
| 2026-05-06 18:06 | 48.68940 | 9.19787 | 1288 ft | 2 kts | 344° |
| 2026-05-06 18:07 | 48.68924 | 9.19793 | 1288 ft | 2 kts | 345° |
| 2026-05-06 18:07 | 48.68908 | 9.19799 | 1290 ft | 2 kts | 5° |
| 2026-05-06 18:07 | 48.68892 | 9.19793 | 1291 ft | 2 kts | 35° |
| 2026-05-06 18:07 | 48.68880 | 9.19777 | 1286 ft | 2 kts | 64° |
| 2026-05-06 18:08 | 48.68878 | 9.19770 | 1286 ft | 0 kts | 71° |
| 2026-05-06 18:10 | 48.68879 | 9.19778 | 1286 ft | 5 kts | 71° |
| 2026-05-06 18:10 | 48.68887 | 9.19850 | 1285 ft | 6 kts | 104° |
| 2026-05-06 18:11 | 48.68843 | 9.19886 | 1285 ft | 11 kts | 163° |
| 2026-05-06 18:11 | 48.68833 | 9.20015 | 1287 ft | 18 kts | 73° |
| 2026-05-06 18:11 | 48.68867 | 9.20194 | 1287 ft | 17 kts | 74° |
| 2026-05-06 18:11 | 48.68896 | 9.20343 | 1285 ft | 13 kts | 74° |
| 2026-05-06 18:12 | 48.68920 | 9.20472 | 1287 ft | 14 kts | 74° |
| 2026-05-06 18:12 | 48.68948 | 9.20621 | 1290 ft | 17 kts | 73° |
| 2026-05-06 18:12 | 48.68987 | 9.20822 | 1285 ft | 23 kts | 74° |
| 2026-05-06 18:12 | 48.69036 | 9.21079 | 1287 ft | 26 kts | 73° |
| 2026-05-06 18:13 | 48.69082 | 9.21326 | 1286 ft | 23 kts | 74° |
| 2026-05-06 18:13 | 48.69126 | 9.21554 | 1288 ft | 22 kts | 74° |
| 2026-05-06 18:13 | 48.69168 | 9.21777 | 1286 ft | 22 kts | 74° |
| 2026-05-06 18:13 | 48.69211 | 9.22005 | 1285 ft | 23 kts | 74° |
| 2026-05-06 18:14 | 48.69256 | 9.22243 | 1288 ft | 24 kts | 74° |
| 2026-05-06 18:14 | 48.69304 | 9.22490 | 1285 ft | 25 kts | 74° |
| 2026-05-06 18:14 | 48.69352 | 9.22750 | 1289 ft | 26 kts | 74° |
| 2026-05-06 18:14 | 48.69404 | 9.23020 | 1285 ft | 27 kts | 74° |
| 2026-05-06 18:15 | 48.69457 | 9.23300 | 1288 ft | 28 kts | 74° |
| 2026-05-06 18:15 | 48.69510 | 9.23581 | 1286 ft | 27 kts | 74° |
| 2026-05-06 18:15 | 48.69448 | 9.23745 | 1285 ft | 20 kts | 171° |
| 2026-05-06 18:15 | 48.69343 | 9.23631 | 1285 ft | 19 kts | 220° |
| 2026-05-06 18:16 | 48.69243 | 9.23490 | 1285 ft | 20 kts | 224° |
| 2026-05-06 18:16 | 48.69192 | 9.23272 | 1285 ft | 34 kts | 255° |
| 2026-05-06 18:16 | 48.69053 | 9.22547 | 1287 ft | 106 kts | 254° |
| 2026-05-06 18:16 | 48.68801 | 9.21198 | 1348 ft | 152 kts | 253° |
| 2026-05-06 18:17 | 48.68551 | 9.19714 | 2118 ft | 143 kts | 255° |
| 2026-05-06 18:17 | 48.68307 | 9.18232 | 2770 ft | 149 kts | 256° |
| 2026-05-06 18:17 | 48.68049 | 9.16631 | 3166 ft | 164 kts | 256° |
| 2026-05-06 18:17 | 48.67758 | 9.14843 | 3530 ft | 185 kts | 256° |
| 2026-05-06 18:18 | 48.67428 | 9.12861 | 3981 ft | 204 kts | 256° |
| 2026-05-06 18:18 | 48.67171 | 9.10615 | 4310 ft | 231 kts | 274° |
| 2026-05-06 18:18 | 48.67695 | 9.08353 | 5139 ft | 238 kts | 304° |
| 2026-05-06 18:18 | 48.68999 | 9.06729 | 5986 ft | 248 kts | 334° |
| 2026-05-06 18:19 | 48.70717 | 9.06298 | 6778 ft | 258 kts | 4° |
| 2026-05-06 18:19 | 48.72457 | 9.07186 | 7370 ft | 278 kts | 32° |
| 2026-05-06 18:19 | 48.73851 | 9.09297 | 8003 ft | 290 kts | 57° |
| 2026-05-06 18:19 | 48.74603 | 9.12142 | 8794 ft | 295 kts | 79° |
| 2026-05-06 18:20 | 48.74967 | 9.15217 | 9655 ft | 298 kts | 81° |
| 2026-05-06 18:20 | 48.75317 | 9.18288 | 10423 ft | 301 kts | 81° |
| 2026-05-06 18:20 | 48.75672 | 9.21438 | 11191 ft | 305 kts | 82° |
| 2026-05-06 18:20 | 48.76030 | 9.24639 | 11962 ft | 309 kts | 82° |
| 2026-05-06 18:21 | 48.76393 | 9.27873 | 12741 ft | 312 kts | 82° |
| 2026-05-06 18:21 | 48.76757 | 9.31101 | 13485 ft | 316 kts | 82° |
| 2026-05-06 18:21 | 48.77129 | 9.34406 | 13762 ft | 319 kts | 82° |
| 2026-05-06 18:21 | 48.77503 | 9.37730 | 13827 ft | 319 kts | 82° |
| 2026-05-06 18:22 | 48.77876 | 9.41054 | 13849 ft | 319 kts | 82° |
| 2026-05-06 18:22 | 48.78133 | 9.44388 | 14418 ft | 320 kts | 94° |
| 2026-05-06 18:22 | 48.77889 | 9.47736 | 15151 ft | 319 kts | 100° |
| 2026-05-06 18:22 | 48.77592 | 9.51092 | 15864 ft | 321 kts | 100° |
| 2026-05-06 18:23 | 48.77295 | 9.54429 | 16559 ft | 323 kts | 101° |
| 2026-05-06 18:23 | 48.76989 | 9.57837 | 17262 ft | 325 kts | 101° |
| 2026-05-06 18:23 | 48.76686 | 9.61210 | 17951 ft | 327 kts | 101° |
| 2026-05-06 18:23 | 48.76379 | 9.64641 | 18571 ft | 329 kts | 101° |
| 2026-05-06 18:24 | 48.76068 | 9.68093 | 19153 ft | 332 kts | 101° |
| 2026-05-06 18:24 | 48.75755 | 9.71576 | 19742 ft | 334 kts | 101° |
| 2026-05-06 18:24 | 48.75437 | 9.75079 | 20305 ft | 337 kts | 101° |
| 2026-05-06 18:24 | 48.75107 | 9.78645 | 20497 ft | 353 kts | 102° |
| 2026-05-06 18:25 | 48.74751 | 9.82418 | 20625 ft | 369 kts | 101° |
| 2026-05-06 18:25 | 48.74378 | 9.86375 | 20767 ft | 384 kts | 101° |
| 2026-05-06 18:25 | 48.74005 | 9.90387 | 21141 ft | 392 kts | 101° |
| 2026-05-06 18:25 | 48.73624 | 9.94524 | 21668 ft | 395 kts | 102° |
| 2026-05-06 18:26 | 48.73246 | 9.98629 | 22194 ft | 398 kts | 102° |
| 2026-05-06 18:26 | 48.72860 | 10.02807 | 22723 ft | 401 kts | 102° |
| 2026-05-06 18:26 | 48.72467 | 10.07017 | 23240 ft | 404 kts | 102° |
| 2026-05-06 18:26 | 48.72073 | 10.11204 | 23683 ft | 407 kts | 102° |
| 2026-05-06 18:27 | 48.71667 | 10.15470 | 24083 ft | 409 kts | 102° |
| 2026-05-06 18:27 | 48.71395 | 10.18324 | 24345 ft | 411 kts | 102° |
| 2026-05-06 18:27 | 48.70983 | 10.22634 | 24726 ft | 414 kts | 103° |
| 2026-05-06 18:27 | 48.70431 | 10.28413 | 25211 ft | 418 kts | 103° |
| 2026-05-06 18:28 | 48.70154 | 10.31311 | 25442 ft | 420 kts | 103° |
| 2026-05-06 18:28 | 48.69729 | 10.35716 | 25793 ft | 423 kts | 103° |
| 2026-05-06 18:28 | 48.69300 | 10.40144 | 26144 ft | 426 kts | 103° |
| 2026-05-06 18:28 | 48.68866 | 10.44619 | 26488 ft | 429 kts | 103° |
| 2026-05-06 18:29 | 48.68433 | 10.49052 | 26822 ft | 432 kts | 103° |
| 2026-05-06 18:29 | 48.67986 | 10.53573 | 27152 ft | 435 kts | 103° |
| 2026-05-06 18:29 | 48.67534 | 10.58130 | 27483 ft | 437 kts | 103° |
| 2026-05-06 18:29 | 48.67082 | 10.62664 | 27805 ft | 440 kts | 103° |
| 2026-05-06 18:30 | 48.66619 | 10.67291 | 28121 ft | 443 kts | 103° |
| 2026-05-06 18:30 | 48.66162 | 10.71886 | 28415 ft | 446 kts | 103° |
| 2026-05-06 18:30 | 48.65699 | 10.76555 | 28702 ft | 448 kts | 103° |
| 2026-05-06 18:30 | 48.65237 | 10.81188 | 28985 ft | 451 kts | 103° |
| 2026-05-06 18:31 | 48.64763 | 10.85888 | 29259 ft | 453 kts | 103° |
| 2026-05-06 18:31 | 48.64280 | 10.90620 | 29506 ft | 456 kts | 103° |
| 2026-05-06 18:31 | 48.63790 | 10.95395 | 29762 ft | 458 kts | 103° |
| 2026-05-06 18:31 | 48.63304 | 11.00106 | 29990 ft | 461 kts | 104° |
| 2026-05-06 18:32 | 48.62806 | 11.04915 | 30197 ft | 463 kts | 104° |
| 2026-05-06 18:32 | 48.62303 | 11.09757 | 30400 ft | 465 kts | 104° |
| 2026-05-06 18:32 | 48.61799 | 11.14622 | 30617 ft | 466 kts | 104° |
| 2026-05-06 18:32 | 48.61301 | 11.19422 | 30797 ft | 466 kts | 104° |
| 2026-05-06 18:33 | 48.60319 | 11.28943 | 30836 ft | 451 kts | 104° |
| 2026-05-06 18:33 | 48.59346 | 11.38204 | 30835 ft | 449 kts | 104° |
| 2026-05-06 18:34 | 48.58350 | 11.47464 | 30832 ft | 449 kts | 104° |
| 2026-05-06 18:34 | 48.57347 | 11.56766 | 30834 ft | 449 kts | 104° |
| 2026-05-06 18:35 | 48.56314 | 11.66080 | 30830 ft | 451 kts | 98° |
| 2026-05-06 18:35 | 48.56297 | 11.75584 | 30819 ft | 455 kts | 94° |
| 2026-05-06 18:36 | 48.56345 | 11.85160 | 30809 ft | 455 kts | 94° |
| 2026-05-06 18:36 | 48.56382 | 11.94699 | 30804 ft | 456 kts | 94° |
| 2026-05-06 18:37 | 48.56405 | 12.04257 | 30799 ft | 456 kts | 94° |
| 2026-05-06 18:37 | 48.56413 | 12.13885 | 30795 ft | 457 kts | 94° |
| 2026-05-06 18:38 | 48.56421 | 12.23454 | 30790 ft | 458 kts | 94° |
| 2026-05-06 18:38 | 48.56429 | 12.33071 | 30791 ft | 459 kts | 94° |
| 2026-05-06 18:39 | 48.56422 | 12.42766 | 30797 ft | 459 kts | 94° |
| 2026-05-06 18:40 | 48.56382 | 12.57182 | 30775 ft | 460 kts | 94° |
| 2026-05-06 18:40 | 48.56350 | 12.66865 | 30763 ft | 461 kts | 94° |
| 2026-05-06 18:41 | 48.56314 | 12.76560 | 30752 ft | 462 kts | 95° |
| 2026-05-06 18:41 | 48.56270 | 12.86219 | 30745 ft | 463 kts | 95° |
| 2026-05-06 18:42 | 48.56208 | 12.96000 | 30737 ft | 464 kts | 95° |
| 2026-05-06 18:42 | 48.56139 | 13.05748 | 30724 ft | 466 kts | 95° |
| 2026-05-06 18:43 | 48.56068 | 13.15502 | 30709 ft | 467 kts | 95° |
| 2026-05-06 18:43 | 48.55983 | 13.25315 | 30700 ft | 468 kts | 95° |
| 2026-05-06 18:44 | 48.55893 | 13.35102 | 30688 ft | 469 kts | 96° |
| 2026-05-06 18:44 | 48.55798 | 13.44948 | 30685 ft | 470 kts | 96° |
| 2026-05-06 18:45 | 48.55693 | 13.54844 | 30676 ft | 471 kts | 96° |
| 2026-05-06 18:45 | 48.55584 | 13.64722 | 30673 ft | 473 kts | 96° |
| 2026-05-06 18:46 | 48.55458 | 13.74696 | 30670 ft | 473 kts | 96° |
| 2026-05-06 18:46 | 48.55323 | 13.84514 | 30673 ft | 474 kts | 96° |
| 2026-05-06 18:47 | 48.55184 | 13.94461 | 30672 ft | 474 kts | 97° |
| 2026-05-06 18:47 | 48.55031 | 14.04399 | 30676 ft | 474 kts | 97° |
| 2026-05-06 18:48 | 48.54868 | 14.14383 | 30678 ft | 475 kts | 97° |
| 2026-05-06 18:48 | 48.54703 | 14.24322 | 30682 ft | 475 kts | 97° |
| 2026-05-06 18:48 | 48.54617 | 14.29319 | 30574 ft | 477 kts | 97° |
| 2026-05-06 18:49 | 48.54529 | 14.34320 | 30071 ft | 473 kts | 97° |
| 2026-05-06 18:49 | 48.54440 | 14.39210 | 29463 ft | 469 kts | 97° |
| 2026-05-06 18:49 | 48.54348 | 14.44128 | 28815 ft | 466 kts | 97° |
| 2026-05-06 18:49 | 48.54255 | 14.49003 | 28219 ft | 463 kts | 97° |
| 2026-05-06 18:50 | 48.54159 | 14.53848 | 27645 ft | 460 kts | 97° |
| 2026-05-06 18:50 | 48.54062 | 14.58671 | 27058 ft | 456 kts | 97° |
| 2026-05-06 18:50 | 48.53967 | 14.63405 | 26493 ft | 452 kts | 97° |
| 2026-05-06 18:50 | 48.53871 | 14.68134 | 25930 ft | 448 kts | 97° |
| 2026-05-06 18:51 | 48.53774 | 14.72774 | 25389 ft | 444 kts | 97° |
| 2026-05-06 18:51 | 48.53672 | 14.77439 | 24851 ft | 440 kts | 97° |
| 2026-05-06 18:51 | 48.53569 | 14.82056 | 24307 ft | 436 kts | 97° |
| 2026-05-06 18:51 | 48.53465 | 14.86572 | 23807 ft | 432 kts | 97° |
| 2026-05-06 18:52 | 48.53361 | 14.91102 | 23295 ft | 429 kts | 97° |
| 2026-05-06 18:52 | 48.53259 | 14.95576 | 22680 ft | 419 kts | 97° |
| 2026-05-06 18:52 | 48.53158 | 14.99890 | 22093 ft | 413 kts | 97° |
| 2026-05-06 18:52 | 48.53052 | 15.04211 | 21509 ft | 408 kts | 97° |
| 2026-05-06 18:53 | 48.52947 | 15.08494 | 20940 ft | 405 kts | 97° |
| 2026-05-06 18:53 | 48.52839 | 15.12720 | 20372 ft | 402 kts | 97° |
| 2026-05-06 18:53 | 48.52728 | 15.16868 | 19834 ft | 398 kts | 97° |
| 2026-05-06 18:53 | 48.52603 | 15.21064 | 19290 ft | 395 kts | 97° |
| 2026-05-06 18:54 | 48.52480 | 15.25168 | 18774 ft | 395 kts | 97° |
| 2026-05-06 18:54 | 48.52367 | 15.29330 | 18245 ft | 395 kts | 96° |
| 2026-05-06 18:54 | 48.52264 | 15.33481 | 17688 ft | 395 kts | 96° |
| 2026-05-06 18:54 | 48.52163 | 15.37624 | 17097 ft | 394 kts | 96° |
| 2026-05-06 18:55 | 48.52064 | 15.41699 | 16527 ft | 393 kts | 95° |
| 2026-05-06 18:55 | 48.51949 | 15.45813 | 15963 ft | 392 kts | 96° |
| 2026-05-06 18:55 | 48.51768 | 15.49921 | 15405 ft | 390 kts | 97° |
| 2026-05-06 18:55 | 48.51535 | 15.54007 | 14853 ft | 388 kts | 98° |
| 2026-05-06 18:56 | 48.51283 | 15.58007 | 14328 ft | 386 kts | 98° |
| 2026-05-06 18:56 | 48.51025 | 15.62033 | 13847 ft | 383 kts | 98° |
| 2026-05-06 18:56 | 48.50774 | 15.66025 | 13444 ft | 378 kts | 98° |
| 2026-05-06 18:56 | 48.50540 | 15.69947 | 13046 ft | 365 kts | 97° |
| 2026-05-06 18:57 | 48.50330 | 15.73611 | 12769 ft | 344 kts | 97° |
| 2026-05-06 18:57 | 48.50132 | 15.77101 | 12506 ft | 324 kts | 98° |
| 2026-05-06 18:57 | 48.49938 | 15.80449 | 12245 ft | 314 kts | 98° |
| 2026-05-06 18:57 | 48.49744 | 15.83690 | 11989 ft | 312 kts | 98° |
| 2026-05-06 18:58 | 48.49549 | 15.86939 | 11738 ft | 310 kts | 98° |
| 2026-05-06 18:58 | 48.49354 | 15.90179 | 11490 ft | 309 kts | 98° |
| 2026-05-06 18:58 | 48.49159 | 15.93405 | 11240 ft | 308 kts | 98° |
| 2026-05-06 18:58 | 48.48966 | 15.96585 | 11000 ft | 307 kts | 98° |
| 2026-05-06 18:59 | 48.48769 | 15.99797 | 10755 ft | 306 kts | 98° |
| 2026-05-06 18:59 | 48.48544 | 16.02985 | 10504 ft | 303 kts | 103° |
| 2026-05-06 18:59 | 48.47961 | 16.05966 | 10268 ft | 298 kts | 117° |
| 2026-05-06 18:59 | 48.46948 | 16.08661 | 10045 ft | 292 kts | 130° |
| 2026-05-06 19:00 | 48.45588 | 16.10921 | 9851 ft | 288 kts | 142° |
| 2026-05-06 19:00 | 48.43967 | 16.12644 | 9603 ft | 280 kts | 155° |
| 2026-05-06 19:00 | 48.42234 | 16.13834 | 9344 ft | 276 kts | 160° |
| 2026-05-06 19:00 | 48.41044 | 16.14609 | 9159 ft | 275 kts | 160° |
| 2026-05-06 19:01 | 48.38721 | 16.16134 | 8822 ft | 271 kts | 160° |
| 2026-05-06 19:01 | 48.37049 | 16.17237 | 8560 ft | 257 kts | 160° |
| 2026-05-06 19:01 | 48.35436 | 16.18304 | 8318 ft | 249 kts | 160° |
| 2026-05-06 19:01 | 48.33855 | 16.19343 | 8063 ft | 246 kts | 160° |
| 2026-05-06 19:02 | 48.32391 | 16.20688 | 7820 ft | 249 kts | 142° |
| 2026-05-06 19:02 | 48.31287 | 16.22677 | 7572 ft | 254 kts | 123° |
| 2026-05-06 19:02 | 48.30654 | 16.25170 | 7327 ft | 258 kts | 103° |
| 2026-05-06 19:02 | 48.30606 | 16.27905 | 7075 ft | 262 kts | 83° |
| 2026-05-06 19:03 | 48.31150 | 16.30462 | 6841 ft | 258 kts | 62° |
| 2026-05-06 19:03 | 48.32222 | 16.32593 | 6603 ft | 253 kts | 40° |
| 2026-05-06 19:03 | 48.33665 | 16.33995 | 6364 ft | 247 kts | 19° |
| 2026-05-06 19:03 | 48.35303 | 16.34557 | 6122 ft | 238 kts | 358° |
| 2026-05-06 19:04 | 48.36910 | 16.34282 | 5976 ft | 228 kts | 340° |
| 2026-05-06 19:04 | 48.38432 | 16.33617 | 5966 ft | 228 kts | 340° |
| 2026-05-06 19:04 | 48.39961 | 16.32962 | 5965 ft | 228 kts | 340° |
| 2026-05-06 19:04 | 48.41487 | 16.32307 | 5963 ft | 228 kts | 339° |
| 2026-05-06 19:05 | 48.43017 | 16.31643 | 5964 ft | 229 kts | 339° |
| 2026-05-06 19:05 | 48.44533 | 16.30981 | 5959 ft | 228 kts | 340° |
| 2026-05-06 19:05 | 48.46033 | 16.30320 | 5953 ft | 216 kts | 340° |
| 2026-05-06 19:05 | 48.47430 | 16.29704 | 5950 ft | 209 kts | 339° |
| 2026-05-06 19:06 | 48.48830 | 16.29097 | 5947 ft | 209 kts | 343° |
| 2026-05-06 19:06 | 48.50288 | 16.29206 | 5949 ft | 215 kts | 21° |
| 2026-05-06 19:06 | 48.51588 | 16.30301 | 5876 ft | 219 kts | 33° |
| 2026-05-06 19:06 | 48.52829 | 16.31638 | 5614 ft | 218 kts | 40° |
| 2026-05-06 19:07 | 48.53657 | 16.33485 | 5355 ft | 211 kts | 79° |
| 2026-05-06 19:07 | 48.53730 | 16.34913 | 5192 ft | 204 kts | 105° |
| 2026-05-06 19:07 | 48.52897 | 16.37363 | 4989 ft | 196 kts | 133° |
| 2026-05-06 19:07 | 48.52047 | 16.38947 | 4959 ft | 195 kts | 135° |
| 2026-05-06 19:08 | 48.51164 | 16.40526 | 4962 ft | 195 kts | 135° |
| 2026-05-06 19:08 | 48.50221 | 16.41945 | 4953 ft | 191 kts | 153° |
| 2026-05-06 19:08 | 48.49031 | 16.42814 | 4967 ft | 187 kts | 165° |
| 2026-05-06 19:08 | 48.47786 | 16.43194 | 4952 ft | 182 kts | 187° |
| 2026-05-06 19:09 | 48.46533 | 16.43128 | 4950 ft | 178 kts | 171° |
| 2026-05-06 19:09 | 48.45357 | 16.43623 | 5003 ft | 176 kts | 169° |
| 2026-05-06 19:09 | 48.44167 | 16.44112 | 5000 ft | 176 kts | 169° |
| 2026-05-06 19:09 | 48.43388 | 16.44439 | 4983 ft | 175 kts | 169° |
| 2026-05-06 19:10 | 48.42215 | 16.44937 | 4970 ft | 175 kts | 169° |
| 2026-05-06 19:10 | 48.41036 | 16.45441 | 4967 ft | 175 kts | 169° |
| 2026-05-06 19:10 | 48.39479 | 16.46106 | 4966 ft | 176 kts | 169° |
| 2026-05-06 19:10 | 48.38695 | 16.46442 | 4968 ft | 176 kts | 170° |
| 2026-05-06 19:11 | 48.37508 | 16.46950 | 4976 ft | 176 kts | 169° |
| 2026-05-06 19:11 | 48.36335 | 16.47452 | 4982 ft | 176 kts | 170° |
| 2026-05-06 19:11 | 48.35150 | 16.47959 | 4987 ft | 176 kts | 170° |
| 2026-05-06 19:11 | 48.33972 | 16.48461 | 4928 ft | 177 kts | 170° |
| 2026-05-06 19:12 | 48.32799 | 16.48963 | 4761 ft | 177 kts | 169° |
| 2026-05-06 19:12 | 48.31618 | 16.49467 | 4555 ft | 175 kts | 170° |
| 2026-05-06 19:12 | 48.30452 | 16.49965 | 4322 ft | 173 kts | 170° |
| 2026-05-06 19:12 | 48.29295 | 16.50459 | 4095 ft | 171 kts | 170° |
| 2026-05-06 19:13 | 48.28169 | 16.50939 | 3878 ft | 168 kts | 170° |
| 2026-05-06 19:13 | 48.27040 | 16.51419 | 3650 ft | 167 kts | 170° |
| 2026-05-06 19:13 | 48.25926 | 16.51894 | 3439 ft | 165 kts | 169° |
| 2026-05-06 19:13 | 48.24828 | 16.52361 | 3218 ft | 164 kts | 169° |
| 2026-05-06 19:14 | 48.23745 | 16.52822 | 3010 ft | 162 kts | 169° |
| 2026-05-06 19:14 | 48.22660 | 16.53284 | 2794 ft | 160 kts | 169° |
| 2026-05-06 19:14 | 48.21604 | 16.53733 | 2584 ft | 157 kts | 169° |
| 2026-05-06 19:14 | 48.20579 | 16.54169 | 2379 ft | 151 kts | 168° |
| 2026-05-06 19:15 | 48.19597 | 16.54586 | 2191 ft | 140 kts | 167° |
| 2026-05-06 19:15 | 48.18675 | 16.54978 | 2017 ft | 136 kts | 167° |
| 2026-05-06 19:15 | 48.17813 | 16.55344 | 1836 ft | 125 kts | 167° |
| 2026-05-06 19:15 | 48.16981 | 16.55696 | 1672 ft | 123 kts | 167° |
| 2026-05-06 19:16 | 48.16163 | 16.56042 | 1506 ft | 121 kts | 165° |
| 2026-05-06 19:16 | 48.15362 | 16.56382 | 1349 ft | 121 kts | 166° |
| 2026-05-06 19:16 | 48.14535 | 16.56732 | 1174 ft | 123 kts | 166° |
| 2026-05-06 19:16 | 48.13717 | 16.57078 | 1015 ft | 124 kts | 165° |
| 2026-05-06 19:17 | 48.12885 | 16.57431 | 817 ft | 123 kts | 164° |
| 2026-05-06 19:17 | 48.12073 | 16.57774 | 667 ft | 122 kts | 165° |
| 2026-05-06 19:17 | 48.11288 | 16.58108 | 617 ft | 97 kts | 163° |
| 2026-05-06 19:17 | 48.10782 | 16.58320 | 612 ft | 65 kts | 163° |
| 2026-05-06 19:18 | 48.10421 | 16.58469 | 610 ft | 36 kts | 172° |
| 2026-05-06 19:18 | 48.10197 | 16.58424 | 618 ft | 23 kts | 194° |
| 2026-05-06 19:18 | 48.10104 | 16.58335 | 618 ft | 16 kts | 250° |
| 2026-05-06 19:18 | 48.10110 | 16.58193 | 615 ft | 11 kts | 321° |
| 2026-05-06 19:19 | 48.10173 | 16.58163 | 612 ft | 8 kts | 346° |
| 2026-05-06 19:19 | 48.10216 | 16.58145 | 616 ft | 0 kts | 344° |
| 2026-05-06 19:20 | 48.10217 | 16.58145 | 616 ft | 1 kts | 344° |
| 2026-05-06 19:20 | 48.10233 | 16.58138 | 615 ft | 4 kts | 344° |
| 2026-05-06 19:20 | 48.10248 | 16.58131 | 619 ft | 2 kts | 344° |
| 2026-05-06 19:20 | 48.10267 | 16.58123 | 617 ft | 4 kts | 343° |
| 2026-05-06 19:21 | 48.10296 | 16.58110 | 610 ft | 5 kts | 343° |
| 2026-05-06 19:21 | 48.10323 | 16.58099 | 621 ft | 0 kts | 345° |
| 2026-05-06 19:21 | 48.10333 | 16.58095 | 615 ft | 3 kts | 345° |
| 2026-05-06 19:21 | 48.10344 | 16.58090 | 617 ft | 0 kts | 342° |
| 2026-05-06 19:27 | 48.10346 | 16.58089 | 610 ft | 1 kts | 342° |
| 2026-05-06 19:27 | 48.10365 | 16.58081 | 622 ft | 4 kts | 343° |
| 2026-05-06 19:27 | 48.10413 | 16.58060 | 619 ft | 10 kts | 344° |
| 2026-05-06 19:28 | 48.10499 | 16.58025 | 615 ft | 15 kts | 345° |
| 2026-05-06 19:28 | 48.10616 | 16.57974 | 613 ft | 20 kts | 342° |
| 2026-05-06 19:28 | 48.10756 | 16.57916 | 613 ft | 22 kts | 344° |
| 2026-05-06 19:28 | 48.10914 | 16.57849 | 621 ft | 22 kts | 343° |
| 2026-05-06 19:29 | 48.11068 | 16.57784 | 616 ft | 22 kts | 344° |
| 2026-05-06 19:29 | 48.11212 | 16.57724 | 615 ft | 21 kts | 344° |
| 2026-05-06 19:29 | 48.11350 | 16.57665 | 618 ft | 20 kts | 344° |
| 2026-05-06 19:29 | 48.11482 | 16.57609 | 619 ft | 19 kts | 344° |
| 2026-05-06 19:30 | 48.11606 | 16.57557 | 620 ft | 18 kts | 344° |
| 2026-05-06 19:30 | 48.11726 | 16.57508 | 618 ft | 17 kts | 344° |
| 2026-05-06 19:30 | 48.11786 | 16.57480 | 616 ft | 1 kts | 343° |
| 2026-05-06 19:30 | 48.11807 | 16.57461 | 620 ft | 7 kts | 312° |
| 2026-05-06 19:31 | 48.11808 | 16.57358 | 616 ft | 12 kts | 282° |
| 2026-05-06 19:31 | 48.11852 | 16.57218 | 613 ft | 16 kts | 289° |
| 2026-05-06 19:31 | 48.11869 | 16.57018 | 619 ft | 7 kts | 212° |
| 2026-05-06 19:32 | 48.11830 | 16.56988 | 621 ft | 1 kts | 207° |
| 2026-05-06 19:32 | 48.11824 | 16.56984 | 618 ft | 0 kts | 207° |
| 2026-05-06 19:32 | 48.11823 | 16.56983 | 617 ft | 0 kts | 207° |